Time;durP1;ratioP1;P1;durP2;ratioP2;P2;SDS_P1;SDS_P2;PMS_P1;PMS_P2;Temp;Humidity;BMP_temperature;BMP_pressure;BME280_temperature;BME280_humidity;BME280_pressure;Samples;Min_cycle;Max_cycle;Signal;HPM_P1;HPM_P2
2023/05/30 00:01:41;;;;;;;23.95;13.10;;;;;;;13.79;100.00;97594.00;10366356;28;19956;-53
2023/05/30 00:06:40;;;;;;;19.85;12.10;;;;;;;13.81;100.00;97592.22;10367017;28;20071;-53
2023/05/30 00:11:39;;;;;;;;;;;;;;;13.82;100.00;97593.97;10364911;28;20120;-51
2023/05/30 00:16:38;;;;;;;24.92;12.68;;;;;;;13.73;100.00;97591.50;10363273;28;19991;-49
2023/05/30 00:21:38;;;;;;;18.67;12.75;;;;;;;13.68;100.00;97585.47;10364799;28;20068;-51
2023/05/30 00:26:37;;;;;;;21.35;14.13;;;;;;;13.72;100.00;97610.63;10363372;28;20128;-52
2023/05/30 00:31:36;;;;;;;;;;;;;;;13.72;100.00;97597.59;10353865;28;20037;-52
2023/05/30 00:36:35;;;;;;;26.27;16.13;;;;;;;13.70;100.00;97586.31;10361401;28;19912;-52
2023/05/30 00:41:34;;;;;;;30.98;17.40;;;;;;;13.85;100.00;97604.34;10364766;28;20559;-50
2023/05/30 00:46:32;;;;;;;;;;;;;;;13.92;100.00;97605.97;10363752;28;20403;-51
2023/05/30 00:51:33;;;;;;;32.20;18.52;;;;;;;14.03;100.00;97612.72;10368599;28;19920;-49
2023/05/30 00:56:31;;;;;;;29.85;17.67;;;;;;;14.11;100.00;97610.88;10366555;28;20084;-51
2023/05/30 01:01:32;;;;;;;;;;;;;;;14.11;100.00;97614.31;10350171;28;20055;-52
2023/05/30 01:06:32;;;;;;;33.15;18.15;;;;;;;14.10;100.00;97614.34;10352989;28;19951;-52
2023/05/30 01:12:09;;;;;;;28.02;16.25;;;;;;;14.16;100.00;97614.25;10354812;28;20503;-52
2023/05/30 01:17:17;;;;;;;24.80;14.02;;;;;;;14.12;100.00;97591.69;10365588;28;20522;-52
2023/05/30 01:22:38;;;;;;;29.73;16.95;;;;;;;14.31;100.00;97608.78;10363626;28;20550;-52
2023/05/30 01:28:04;;;;;;;24.95;16.70;;;;;;;14.31;100.00;97598.31;10362781;28;20080;-49
2023/05/30 01:33:06;;;;;;;27.30;17.00;;;;;;;14.32;100.00;97604.41;10373196;28;20064;-49
2023/05/30 01:38:05;;;;;;;24.50;14.85;;;;;;;14.42;100.00;97600.72;10372319;28;20072;-51
2023/05/30 01:43:32;;;;;;;19.92;11.38;;;;;;;14.40;100.00;97594.66;10372615;28;20033;-52
2023/05/30 01:48:50;;;;;;;25.85;11.45;;;;;;;14.28;100.00;97594.91;10378053;28;20493;-51
2023/05/30 01:53:56;;;;;;;20.67;10.48;;;;;;;13.80;100.00;97577.47;10370222;28;20121;-52
2023/05/30 01:58:55;;;;;;;23.88;10.82;;;;;;;13.64;100.00;97610.75;10369466;28;20068;-52
2023/05/30 02:03:55;;;;;;;26.10;11.50;;;;;;;13.67;100.00;97615.06;10355559;28;20128;-52
2023/05/30 02:08:54;;;;;;;20.40;10.35;;;;;;;13.56;100.00;97597.84;10361784;28;20115;-50
2023/05/30 02:13:52;;;;;;;;;;;;;;;13.65;100.00;97606.41;10369806;28;20029;-51
2023/05/30 02:18:52;;;;;;;15.27;8.33;;;;;;;13.37;100.00;97578.09;10359497;28;19960;-50
2023/05/30 02:23:51;;;;;;;12.63;7.15;;;;;;;13.50;100.00;97610.94;10371936;28;20527;-52
2023/05/30 02:28:50;;;;;;;;;;;;;;;13.55;100.00;97610.91;10372220;28;20824;-53
2023/05/30 02:33:49;;;;;;;16.50;9.20;;;;;;;13.71;100.00;97601.09;10371765;28;20461;-51
2023/05/30 02:38:48;;;;;;;16.83;8.52;;;;;;;13.73;100.00;97599.34;10371602;28;20068;-51
2023/05/30 02:43:47;;;;;;;;;;;;;;;13.72;100.00;97603.66;10371011;28;20036;-52
2023/05/30 02:48:46;;;;;;;22.85;11.48;;;;;;;13.69;100.00;97610.69;10371292;28;19916;-51
2023/05/30 02:53:45;;;;;;;;;;;;;;;13.62;100.00;97609.91;10353549;28;20407;-52
2023/05/30 02:58:43;;;;;;;27.23;10.88;;;;;;;13.63;100.00;97608.16;10371042;28;19921;-49
2023/05/30 03:03:42;;;;;;;;;;;;;;;13.51;100.00;97609.19;10373308;28;20115;-53
2023/05/30 03:08:44;;;;;;;24.67;10.20;;;;;;;13.43;100.00;97616.28;10373175;28;19916;-52
2023/05/30 03:13:46;;;;;;;21.20;9.68;;;;;;;13.43;100.00;97632.75;10370012;28;20112;-51
2023/05/30 03:18:45;;;;;;;25.30;10.20;;;;;;;13.54;100.00;97624.84;10368732;28;20079;-53
2023/05/30 03:23:44;;;;;;;19.98;9.82;;;;;;;13.65;100.00;97617.69;10369560;28;20535;-52
2023/05/30 03:28:43;;;;;;;25.55;11.30;;;;;;;13.48;100.00;97610.09;10368280;28;20072;-49
2023/05/30 04:02:04;;;;;;;28.53;13.30;;;;;;;13.09;100.00;97653.19;10493105;27;20722;-51
2023/05/30 04:07:03;;;;;;;24.02;13.10;;;;;;;13.41;100.00;97650.16;10492703;28;20481;-50
2023/05/30 04:12:03;;;;;;;24.33;12.25;;;;;;;13.84;100.00;97648.69;10483230;28;20504;-49
2023/05/30 04:17:02;;;;;;;28.92;14.60;;;;;;;14.14;100.00;97653.41;10483996;28;20110;-52
2023/05/30 04:22:01;;;;;;;23.75;13.40;;;;;;;14.31;100.00;97645.31;10484554;28;20055;-50
2023/05/30 04:27:00;;;;;;;26.17;13.80;;;;;;;14.49;100.00;97653.69;10479286;28;20458;-51
2023/05/30 04:31:59;;;;;;;33.50;13.88;;;;;;;14.52;100.00;97653.63;10483770;28;20681;-50
2023/05/30 04:36:58;;;;;;;40.40;15.85;;;;;;;14.57;100.00;97657.03;10484572;28;20071;-50
2023/05/30 04:41:58;;;;;;;32.83;14.85;;;;;;;14.53;100.00;97660.59;10484226;28;20122;-50
2023/05/30 04:46:58;;;;;;;25.67;14.48;;;;;;;14.55;100.00;97664.03;10483703;28;20056;-52
2023/05/30 04:51:57;;;;;;;27.40;14.35;;;;;;;14.57;100.00;97626.56;10483281;28;20193;-52
2023/05/30 04:56:56;;;;;;;27.35;14.32;;;;;;;14.90;100.00;97658.16;10484447;28;20055;-53
2023/05/30 05:01:55;;;;;;;33.63;15.90;;;;;;;14.86;100.00;97653.88;10460145;28;20114;-51
2023/05/30 05:06:56;;;;;;;35.70;16.05;;;;;;;14.71;100.00;97664.63;10449434;28;20411;-51
2023/05/30 05:11:56;;;;;;;26.65;12.43;;;;;;;14.57;100.00;97677.94;10449895;28;20119;-51
2023/05/30 05:16:54;;;;;;;17.67;11.18;;;;;;;14.41;100.00;97662.53;10454919;28;20060;-52
2023/05/30 05:21:53;;;;;;;17.90;11.55;;;;;;;14.60;100.00;97685.69;10455416;28;20046;-52
2023/05/30 05:26:52;;;;;;;;;;;;;;;14.83;100.00;97675.72;10455948;28;20036;-51
2023/05/30 05:31:51;;;;;;;20.13;11.33;;;;;;;14.99;99.63;97670.16;10454889;28;20462;-51
2023/05/30 05:36:50;;;;;;;;;;;;;;;15.22;99.82;97704.56;10455859;28;20055;-52
2023/05/30 05:41:49;;;;;;;16.47;10.97;;;;;;;15.14;98.50;97701.22;10454188;28;19916;-52
2023/05/30 05:46:48;;;;;;;20.60;14.45;;;;;;;15.06;97.83;97705.75;10454556;28;20767;-52
2023/05/30 05:51:47;;;;;;;19.20;12.30;;;;;;;15.01;99.58;97720.66;10454089;28;20460;-51
2023/05/30 05:56:46;;;;;;;;;;;;;;;15.07;99.59;97724.91;10454418;28;20032;-50
2023/05/30 06:01:44;;;;;;;18.93;12.87;;;;;;;15.12;100.00;97723.06;10452533;28;19916;-50
2023/05/30 06:06:44;;;;;;;;;;;;;;;15.18;100.00;97715.97;10450068;28;20127;-52
2023/05/30 06:11:43;;;;;;;21.58;13.18;;;;;;;15.16;100.00;97719.50;10451544;28;19985;-53
2023/05/30 06:16:42;;;;;;;;;;;;;;;15.19;100.00;97722.06;10452937;28;20110;-52
2023/05/30 06:21:41;;;;;;;34.17;22.97;;;;;;;14.86;100.00;97700.06;10452590;28;20016;-52
2023/05/30 06:26:40;;;;;;;;;;;;;;;15.11;100.00;97732.66;10453007;28;20051;-50
2023/05/30 06:31:38;;;;;;;31.67;19.03;;;;;;;15.29;100.00;97731.41;10452124;28;19951;-50
2023/05/30 06:36:37;;;;;;;;;;;;;;;15.59;100.00;97731.69;10451023;28;20131;-51
2023/05/30 06:41:36;;;;;;;20.13;12.40;;;;;;;15.60;100.00;97725.53;10451845;28;19919;-52
2023/05/30 06:46:36;;;;;;;21.52;13.13;;;;;;;15.32;100.00;97731.38;10451592;28;20044;-52
2023/05/30 06:51:36;;;;;;;17.70;12.20;;;;;;;15.21;100.00;97728.97;10451728;28;20059;-52
2023/05/30 06:56:34;;;;;;;22.30;13.43;;;;;;;14.98;100.00;97752.06;10451011;28;20482;-52
2023/05/30 07:01:33;;;;;;;15.65;10.98;;;;;;;14.72;100.00;97749.94;10450885;28;20481;-52
2023/05/30 07:06:32;;;;;;;16.10;11.45;;;;;;;14.78;100.00;97755.91;10450967;28;20501;-50
2023/05/30 07:11:31;;;;;;;14.80;10.60;;;;;;;14.89;100.00;97762.69;10450379;28;20532;-51
2023/05/30 07:16:31;;;;;;;18.15;11.13;;;;;;;14.85;100.00;97766.25;10449658;28;20391;-52
2023/05/30 07:21:30;;;;;;;14.25;10.07;;;;;;;14.75;100.00;97735.06;10450954;28;20108;-51
2023/05/30 07:26:29;;;;;;;16.75;9.65;;;;;;;14.95;100.00;97768.66;10450609;28;20114;-54
2023/05/30 07:31:28;;;;;;;14.38;10.52;;;;;;;15.01;100.00;97757.22;10450366;28;20534;-53
2023/05/30 07:36:27;;;;;;;14.32;9.52;;;;;;;15.12;100.00;97768.34;10450512;28;20107;-53
2023/05/30 07:41:26;;;;;;;;;;;;;;;15.19;100.00;97772.56;10450441;28;20541;-53
2023/05/30 07:46:25;;;;;;;12.77;10.00;;;;;;;15.31;100.00;97768.00;10449887;28;20354;-51
2023/05/30 07:51:24;;;;;;;12.30;9.38;;;;;;;15.45;100.00;97765.97;10449777;28;20051;-51
2023/05/30 07:56:23;;;;;;;13.45;10.27;;;;;;;15.58;100.00;97763.97;10447762;28;20119;-52
2023/05/30 08:01:21;;;;;;;;;;;;;;;15.78;100.00;97766.16;10445498;28;20032;-54
2023/05/30 08:06:20;;;;;;;19.60;12.20;;;;;;;15.94;100.00;97761.47;10446058;28;20406;-52
2023/05/30 08:11:19;;;;;;;16.77;11.15;;;;;;;15.95;100.00;97774.53;10448648;28;20450;-51
2023/05/30 08:16:20;;;;;;;13.88;11.15;;;;;;;15.89;100.00;97782.50;10445063;28;20067;-52
2023/05/30 08:21:19;;;;;;;15.60;11.90;;;;;;;15.78;100.00;97776.63;10447148;28;20128;-50
2023/05/30 08:26:18;;;;;;;16.98;14.48;;;;;;;15.90;100.00;97778.13;10448252;28;20375;-53
2023/05/30 08:31:19;;;;;;;19.02;14.70;;;;;;;16.13;100.00;97772.38;10448596;28;20053;-51
2023/05/30 08:36:21;;;;;;;17.05;13.48;;;;;;;16.35;100.00;97768.38;10453393;28;20052;-50
2023/05/30 08:41:21;;;;;;;15.90;12.13;;;;;;;16.45;100.00;97756.78;10455081;28;20490;-52
2023/05/30 08:46:20;;;;;;;18.92;15.00;;;;;;;16.77;100.00;97769.94;10455004;28;20060;-52
2023/05/30 08:51:22;;;;;;;17.42;13.70;;;;;;;17.09;100.00;97774.41;10453672;28;20052;-52
2023/05/30 08:56:33;;;;;;;17.27;13.98;;;;;;;17.17;100.00;97769.81;10454363;28;20059;-52
2023/05/30 09:01:33;;;;;;;16.92;13.82;;;;;;;17.29;99.70;97772.09;10450298;28;20056;-52
2023/05/30 09:06:36;;;;;;;16.70;13.60;;;;;;;17.28;98.87;97772.97;10454448;28;21436;-51
2023/05/30 09:11:36;;;;;;;14.15;11.48;;;;;;;17.37;98.54;97768.41;10454528;28;20107;-50
2023/05/30 09:16:35;;;;;;;14.38;11.55;;;;;;;17.62;96.89;97777.28;10455026;28;20063;-52
2023/05/30 09:21:35;;;;;;;18.50;15.63;;;;;;;17.82;95.65;97773.25;10451225;28;20131;-51
2023/05/30 09:26:34;;;;;;;17.42;14.15;;;;;;;18.03;95.24;97783.09;10453872;28;20078;-52
2023/05/30 09:31:35;;;;;;;16.60;13.77;;;;;;;18.15;94.80;97787.09;10453005;28;20054;-52
2023/05/30 09:36:35;;;;;;;12.95;11.55;;;;;;;18.03;93.66;97777.84;10454810;28;20062;-51
2023/05/30 09:41:34;;;;;;;13.43;11.80;;;;;;;18.09;92.95;97780.28;10454710;28;20062;-51
2023/05/30 09:46:35;;;;;;;12.00;9.73;;;;;;;18.11;92.75;97778.47;10453192;28;20090;-49
2023/05/30 09:51:37;;;;;;;13.90;10.85;;;;;;;17.91;90.49;97754.59;10453225;28;20106;-51
2023/05/30 09:56:38;;;;;;;13.55;10.32;;;;;;;18.04;93.06;97771.69;10453529;28;20477;-51
2023/05/30 10:01:42;;;;;;;15.43;11.85;;;;;;;18.28;93.66;97766.59;10452658;28;20066;-51
2023/05/30 10:06:43;;;;;;;14.93;13.18;;;;;;;18.51;93.63;97757.97;10452591;28;20055;-52
2023/05/30 10:11:44;;;;;;;11.70;9.05;;;;;;;18.70;90.44;97750.34;10446967;28;20123;-50
2023/05/30 10:16:53;;;;;;;8.88;7.35;;;;;;;18.66;90.64;97748.69;10448818;28;20078;-52
2023/05/30 10:21:53;;;;;;;;;;;;;;;18.54;90.30;97740.31;10452250;28;20055;-53
2023/05/30 10:26:59;;;;;;;8.52;7.38;;;;;;;18.60;90.84;97744.53;10449305;28;20042;-51
2023/05/30 10:32:01;;;;;;;11.63;9.27;;;;;;;18.77;91.57;97743.97;10449582;28;20119;-51
2023/05/30 10:37:01;;;;;;;12.82;9.82;;;;;;;18.94;88.89;97731.09;10449246;28;20115;-51
2023/05/30 10:42:28;;;;;;;8.90;7.75;;;;;;;19.36;88.27;97729.63;10451528;28;20047;-51
2023/05/30 10:47:38;;;;;;;9.70;7.55;;;;;;;19.69;85.38;97719.63;10451207;28;20044;-52
2023/05/30 10:52:37;;;;;;;10.73;8.73;;;;;;;19.98;85.60;97712.38;10450649;28;20066;-52
2023/05/30 10:57:36;;;;;;;7.53;6.10;;;;;;;20.50;86.21;97697.97;10451867;28;20110;-52
2023/05/30 11:02:38;;;;;;;8.63;6.15;;;;;;;20.61;81.14;97686.97;10452434;28;20075;-52
2023/05/30 11:07:40;;;;;;;6.28;4.65;;;;;;;20.80;79.71;97676.50;10451825;28;20054;-50
2023/05/30 11:12:42;;;;;;;6.47;4.53;;;;;;;21.12;79.54;97663.63;10452136;28;20530;-51
2023/05/30 11:17:41;;;;;;;3.50;3.10;;;;;;;21.66;74.90;97671.75;10451954;28;20066;-52
2023/05/30 11:23:01;;;;;;;4.00;3.22;;;;;;;21.96;72.49;97664.16;10452055;28;20047;-51
2023/05/30 11:28:13;;;;;;;2.60;2.40;;;;;;;21.32;67.02;97665.41;10451588;28;20063;-52
2023/05/30 11:33:14;;;;;;;4.15;3.20;;;;;;;20.64;69.07;97646.44;10451844;28;20082;-52
2023/05/30 11:38:21;;;;;;;2.90;2.58;;;;;;;20.81;72.37;97641.25;10451413;28;20091;-53
2023/05/30 11:43:21;;;;;;;2.80;2.17;;;;;;;21.05;72.57;97631.38;10451168;28;20062;-52
2023/05/30 11:48:20;;;;;;;2.88;2.58;;;;;;;21.21;74.07;97622.81;10451888;28;20107;-53
2023/05/30 11:53:19;;;;;;;3.13;2.35;;;;;;;21.01;67.57;97579.72;10451083;28;20059;-51
2023/05/30 11:58:18;;;;;;;3.63;2.70;;;;;;;20.65;70.52;97569.88;10451136;28;20158;-53
2023/05/30 12:03:17;;;;;;;7.38;2.90;;;;;;;21.03;74.24;97593.69;10451483;28;20459;-53
2023/05/30 12:08:19;;;;;;;3.60;3.28;;;;;;;21.61;73.52;97591.91;10450853;28;20487;-52
2023/05/30 12:13:19;;;;;;;4.18;3.15;;;;;;;21.66;72.94;97526.50;10456595;28;20071;-53
2023/05/30 12:18:21;;;;;;;3.65;3.20;;;;;;;22.05;66.90;97573.91;10459210;28;20070;-51
2023/05/30 12:23:24;;;;;;;6.07;3.67;;;;;;;22.15;66.01;97574.28;10458594;28;20542;-52
2023/05/30 12:28:23;;;;;;;4.90;2.95;;;;;;;21.85;63.97;97568.72;10457820;28;20111;-52
2023/05/30 12:33:23;;;;;;;6.07;3.30;;;;;;;21.70;65.58;97543.91;10458929;28;20074;-51
2023/05/30 12:38:25;;;;;;;2.50;2.30;;;;;;;21.90;59.90;97551.72;10458431;28;20055;-53
2023/05/30 12:43:27;;;;;;;3.35;2.63;;;;;;;21.98;64.21;97543.41;10458056;28;20053;-52
2023/05/30 12:48:26;;;;;;;3.72;2.92;;;;;;;21.97;61.33;97533.78;10458630;28;20059;-52
2023/05/30 12:53:26;;;;;;;4.22;3.00;;;;;;;21.96;62.49;97500.34;10457865;28;20093;-51
2023/05/30 12:58:25;;;;;;;3.72;2.67;;;;;;;22.50;63.60;97518.72;10457488;28;20123;-52
2023/05/30 13:03:24;;;;;;;4.70;2.60;;;;;;;22.43;59.15;97514.69;10457726;28;20054;-52
2023/05/30 13:08:23;;;;;;;4.32;2.60;;;;;;;22.09;61.55;97497.97;10457418;28;20036;-53
2023/05/30 13:13:22;;;;;;;2.60;2.40;;;;;;;22.14;60.50;97495.94;10457093;28;20028;-53
2023/05/30 13:18:21;;;;;;;3.53;2.47;;;;;;;22.47;59.91;97487.19;10457093;28;20034;-52
2023/05/30 13:23:20;;;;;;;2.63;2.30;;;;;;;22.72;61.14;97481.44;10455386;28;20838;-54
2023/05/30 13:28:19;;;;;;;4.80;2.60;;;;;;;23.01;58.25;97485.13;10452737;28;20172;-51
2023/05/30 13:33:18;;;;;;;3.97;2.47;;;;;;;22.84;58.64;97480.78;10453579;28;20055;-53
2023/05/30 13:38:17;;;;;;;3.05;2.55;;;;;;;23.13;59.76;97476.50;10448308;28;20126;-53
2023/05/30 13:43:16;;;;;;;6.07;2.13;;;;;;;23.58;57.50;97472.22;10453750;28;20147;-53
2023/05/30 13:48:19;;;;;;;6.30;3.08;;;;;;;23.73;55.30;97473.09;10451052;28;20043;-53
2023/05/30 13:53:19;;;;;;;2.25;2.05;;;;;;;23.94;54.45;97473.63;10456711;28;20052;-54
2023/05/30 13:58:18;;;;;;;3.92;2.47;;;;;;;24.03;52.15;97472.22;10456612;28;20068;-52
2023/05/30 14:03:17;;;;;;;3.33;2.45;;;;;;;24.18;53.63;97459.88;10456206;28;20100;-53
2023/05/30 14:08:17;;;;;;;3.22;2.78;;;;;;;24.35;53.74;97446.41;10458249;28;20032;-53
2023/05/30 14:13:16;;;;;;;2.80;2.30;;;;;;;24.47;54.13;97444.81;10457426;28;20642;-52
2023/05/30 14:18:16;;;;;;;5.10;2.28;;;;;;;24.54;52.83;97458.53;10457726;28;20639;-54
2023/05/30 14:23:15;;;;;;;4.45;2.05;;;;;;;24.27;53.69;97448.72;10457266;28;20075;-53
2023/05/30 14:28:14;;;;;;;3.00;2.30;;;;;;;24.09;53.99;97449.78;10456769;28;20483;-54
2023/05/30 14:33:13;;;;;;;2.70;2.20;;;;;;;24.01;54.03;97443.16;10455536;28;20537;-53
2023/05/30 14:38:12;;;;;;;2.95;2.30;;;;;;;24.10;50.95;97464.75;10456365;28;20032;-52
2023/05/30 14:43:12;;;;;;;2.38;2.17;;;;;;;24.25;51.44;97462.06;10456066;28;20020;-53
2023/05/30 14:48:11;;;;;;;4.07;2.47;;;;;;;24.53;51.07;97454.19;10453621;28;20063;-53
2023/05/30 14:53:11;;;;;;;2.40;2.10;;;;;;;24.99;54.41;97451.28;10452015;28;20507;-53
2023/05/30 14:58:10;;;;;;;2.58;2.13;;;;;;;25.09;50.56;97453.28;10451135;28;20071;-51
2023/05/30 15:03:09;;;;;;;2.90;1.95;;;;;;;24.52;50.59;97458.66;10451350;28;20074;-53
2023/05/30 15:08:08;;;;;;;4.10;2.50;;;;;;;24.22;51.53;97466.69;10450882;28;20162;-53
2023/05/30 15:13:07;;;;;;;2.75;2.20;;;;;;;23.91;52.88;97468.53;10450735;28;20037;-53
2023/05/30 15:18:06;;;;;;;5.63;2.90;;;;;;;23.87;54.42;97471.44;10452423;28;20051;-53
2023/05/30 15:23:05;;;;;;;4.90;3.03;;;;;;;23.87;54.55;97461.69;10451037;28;20438;-53
2023/05/30 15:28:04;;;;;;;5.65;2.65;;;;;;;24.09;54.68;97465.69;10452073;28;20466;-53
2023/05/30 15:33:03;;;;;;;6.13;3.17;;;;;;;24.27;54.78;97469.91;10451362;28;20155;-53
2023/05/30 15:38:02;;;;;;;5.82;3.13;;;;;;;24.56;54.98;97468.09;10443488;28;20032;-52
2023/05/30 15:43:01;;;;;;;3.97;2.30;;;;;;;25.08;53.83;97463.97;10448783;28;20460;-53
2023/05/30 15:48:00;;;;;;;6.75;2.08;;;;;;;25.31;51.00;97471.31;10450093;28;20036;-53
2023/05/30 15:53:00;;;;;;;2.50;2.03;;;;;;;25.38;51.83;97469.09;10448496;28;20131;-51
2023/05/30 15:57:59;;;;;;;5.63;2.42;;;;;;;25.47;51.86;97467.66;10447468;28;20478;-52
2023/05/30 16:02:58;;;;;;;3.58;2.30;;;;;;;25.31;51.25;97444.75;10448880;28;20597;-52
2023/05/30 16:08:00;;;;;;;3.33;2.20;;;;;;;25.43;50.72;97466.16;10448797;28;20082;-52
2023/05/30 16:12:59;;;;;;;4.55;2.40;;;;;;;25.52;51.67;97473.50;10448163;28;20121;-52
2023/05/30 16:17:58;;;;;;;3.50;2.50;;;;;;;25.70;53.35;97482.09;10449547;28;20051;-51
2023/05/30 16:22:57;;;;;;;2.65;2.17;;;;;;;25.82;53.12;97483.09;10449741;28;20028;-52
2023/05/30 16:27:56;;;;;;;3.42;2.50;;;;;;;25.66;54.98;97494.72;10448547;28;20148;-54
2023/05/30 16:32:55;;;;;;;4.97;2.70;;;;;;;25.36;57.56;97496.72;10448953;28;20459;-53
2023/05/30 16:37:54;;;;;;;3.03;2.63;;;;;;;24.85;59.25;97507.91;10449434;28;20481;-54
2023/05/30 16:42:53;;;;;;;3.22;2.70;;;;;;;24.48;61.19;97497.78;10442035;28;20135;-53
2023/05/30 16:47:52;;;;;;;3.95;2.92;;;;;;;24.22;62.18;97520.56;10447715;28;20222;-53
2023/05/30 16:52:51;;;;;;;4.20;2.47;;;;;;;23.17;59.21;97530.13;10449027;28;20040;-54
2023/05/30 16:57:50;;;;;;;7.88;2.78;;;;;;;22.85;63.62;97543.31;10454036;28;20478;-56
2023/05/30 17:02:49;;;;;;;6.25;3.30;;;;;;;22.53;69.31;97559.09;10457014;28;20142;-53
2023/05/30 17:07:48;;;;;;;7.05;3.45;;;;;;;22.25;72.33;97570.25;10456025;28;20979;-53
2023/05/30 17:12:47;;;;;;;6.45;4.13;;;;;;;22.00;73.07;97578.56;10454417;28;20039;-53
2023/05/30 17:17:46;;;;;;;3.90;3.10;;;;;;;21.79;74.77;97593.66;10453001;28;20495;-54
2023/05/30 17:22:45;;;;;;;7.55;3.58;;;;;;;20.93;75.47;97616.97;10452289;28;20544;-52
2023/05/30 17:27:46;;;;;;;4.55;2.65;;;;;;;19.70;77.73;97616.03;10451017;28;20052;-54
2023/05/30 17:32:45;;;;;;;5.03;3.00;;;;;;;19.05;81.14;97627.31;10451719;28;20514;-53
2023/05/30 17:37:44;;;;;;;5.88;3.35;;;;;;;18.92;83.98;97605.84;10451607;28;20526;-53
2023/05/30 17:42:43;;;;;;;5.88;3.78;;;;;;;18.94;85.53;97625.06;10450273;28;20055;-52
2023/05/30 17:47:42;;;;;;;9.68;3.78;;;;;;;18.90;85.56;97628.72;10452379;28;20078;-53
2023/05/30 17:52:41;;;;;;;11.18;4.72;;;;;;;18.78;84.33;97638.78;10451573;28;20028;-53
2023/05/30 17:57:40;;;;;;;8.77;4.25;;;;;;;18.60;83.89;97644.66;10450482;28;20139;-52
2023/05/30 18:02:40;;;;;;;6.53;3.88;;;;;;;18.50;84.34;97665.13;10451560;28;20055;-55
2023/05/30 18:07:39;;;;;;;6.80;3.95;;;;;;;18.26;84.86;97658.06;10449252;28;20487;-52
2023/05/30 18:12:38;;;;;;;8.70;3.92;;;;;;;18.12;86.04;97661.16;10450987;28;20073;-50
2023/05/30 18:17:37;;;;;;;7.25;4.05;;;;;;;17.79;87.64;97632.47;10450841;28;20055;-51
2023/05/30 18:22:37;;;;;;;5.78;4.00;;;;;;;17.97;88.31;97667.78;10450260;28;20032;-52
2023/05/30 18:27:36;;;;;;;6.82;4.75;;;;;;;17.90;89.06;97674.13;10448971;28;20126;-51
2023/05/30 18:32:35;;;;;;;7.47;4.80;;;;;;;17.83;88.94;97675.22;10448170;28;20356;-53
2023/05/30 18:37:33;;;;;;;9.05;5.88;;;;;;;17.79;89.60;97676.22;10449770;28;20059;-54
2023/05/30 18:42:32;;;;;;;7.40;4.10;;;;;;;17.20;89.95;97595.81;10450841;28;20070;-53
2023/05/30 18:47:31;;;;;;;7.95;4.80;;;;;;;17.69;90.03;97678.25;10450153;28;20231;-52
2023/05/30 18:52:30;;;;;;;7.80;4.35;;;;;;;17.65;90.74;97685.34;10452839;28;20474;-54
2023/05/30 18:57:30;;;;;;;6.30;4.15;;;;;;;17.60;91.35;97703.00;10451883;28;20075;-54
2023/05/30 19:02:29;;;;;;;5.57;3.92;;;;;;;17.56;91.25;97709.22;10452894;28;20044;-54
2023/05/30 19:07:32;;;;;;;4.55;3.70;;;;;;;17.55;92.71;97710.16;10452015;28;20474;-53
2023/05/30 19:12:30;;;;;;;7.28;3.80;;;;;;;17.51;92.33;97705.91;10452144;28;20059;-52
2023/05/30 19:17:29;;;;;;;5.22;4.15;;;;;;;17.49;92.19;97723.44;10451731;28;20118;-51
2023/05/30 19:22:28;;;;;;;8.82;5.40;;;;;;;17.49;93.03;97723.44;10452221;28;20059;-54
2023/05/30 19:27:27;;;;;;;8.27;4.97;;;;;;;17.47;93.79;97722.63;10452026;28;20063;-53
2023/05/30 19:32:26;;;;;;;8.38;5.40;;;;;;;17.41;94.23;97700.06;10452383;28;20031;-51
2023/05/30 19:37:25;;;;;;;8.82;5.25;;;;;;;17.52;93.76;97715.50;10451817;28;20024;-53
2023/05/30 19:42:24;;;;;;;8.38;5.50;;;;;;;17.46;94.59;97720.91;10451821;28;20107;-51
2023/05/30 19:47:23;;;;;;;9.80;5.28;;;;;;;17.48;94.60;97716.50;10451656;28;20046;-51
2023/05/30 19:52:22;;;;;;;13.23;5.40;;;;;;;17.50;94.75;97727.81;10448567;28;20924;-51
2023/05/30 19:57:21;;;;;;;9.27;4.85;;;;;;;17.48;94.66;97726.97;10448030;28;20561;-50
2023/05/30 20:02:20;;;;;;;7.65;4.85;;;;;;;17.39;94.69;97722.84;10447846;28;20028;-52
2023/05/30 20:07:19;;;;;;;9.13;5.57;;;;;;;17.39;95.05;97716.75;10446532;28;20127;-50
2023/05/30 20:12:18;;;;;;;8.90;5.53;;;;;;;17.38;94.96;97715.03;10446301;28;20036;-52
2023/05/30 20:17:17;;;;;;;11.00;6.35;;;;;;;17.33;95.02;97687.19;10444872;28;20488;-52
2023/05/30 20:22:17;;;;;;;7.97;5.55;;;;;;;17.42;94.86;97706.16;10446288;28;20028;-53
2023/05/30 20:27:19;;;;;;;11.32;7.28;;;;;;;17.39;94.62;97711.50;10445999;28;20127;-52
2023/05/30 20:32:18;;;;;;;12.40;7.05;;;;;;;17.25;96.02;97706.66;10449773;28;20404;-51
2023/05/30 20:37:17;;;;;;;9.65;7.13;;;;;;;16.92;97.19;97699.69;10455113;28;20429;-51
2023/05/30 20:42:17;;;;;;;15.75;9.07;;;;;;;16.92;98.60;97706.69;10455610;28;20056;-53
2023/05/30 20:47:16;;;;;;;14.88;8.88;;;;;;;16.73;99.78;97701.06;10455062;28;20056;-51
2023/05/30 20:52:15;;;;;;;11.40;7.65;;;;;;;16.36;100.00;97673.19;10454712;28;20127;-51
2023/05/30 20:57:15;;;;;;;12.85;8.18;;;;;;;16.61;99.76;97704.00;10453852;28;20043;-55
2023/05/30 21:02:14;;;;;;;14.20;9.35;;;;;;;16.66;99.57;97712.59;10455469;28;20059;-52
2023/05/30 21:07:13;;;;;;;15.80;9.23;;;;;;;16.56;99.87;97713.72;10453904;28;20545;-52
2023/05/30 21:12:12;;;;;;;26.67;10.65;;;;;;;16.49;100.00;97719.13;10453865;28;20060;-50
2023/05/30 21:17:11;;;;;;;21.77;11.55;;;;;;;16.41;100.00;97714.97;10453278;28;20028;-52
2023/05/30 21:22:10;;;;;;;21.48;11.45;;;;;;;16.33;100.00;97720.41;10453681;28;20059;-52
2023/05/30 21:27:10;;;;;;;19.98;11.75;;;;;;;16.32;100.00;97723.91;10453659;28;20036;-51
2023/05/30 21:32:09;;;;;;;23.38;13.45;;;;;;;16.29;100.00;97724.00;10453116;28;20063;-53
2023/05/30 21:37:07;;;;;;;27.17;14.98;;;;;;;16.19;100.00;97722.50;10452367;28;20040;-52
2023/05/30 21:42:06;;;;;;;25.23;14.30;;;;;;;16.13;100.00;97715.66;10452898;28;20115;-51
2023/05/30 21:47:06;;;;;;;26.80;14.85;;;;;;;16.12;100.00;97710.47;10452851;28;20107;-53
2023/05/30 21:52:05;;;;;;;27.63;14.93;;;;;;;16.09;100.00;97712.25;10452259;28;20498;-49
2023/05/30 21:57:08;;;;;;;28.40;16.90;;;;;;;15.93;100.00;97695.19;10451055;28;20249;-50
2023/05/30 22:02:08;;;;;;;26.35;16.20;;;;;;;15.94;100.00;97712.59;10451819;28;20487;-52
2023/05/30 22:07:07;;;;;;;28.48;16.88;;;;;;;15.78;100.00;97693.75;10451494;28;20063;-52
2023/05/30 22:12:06;;;;;;;32.13;19.98;;;;;;;15.86;100.00;97707.56;10449560;28;20048;-51
2023/05/30 22:17:06;;;;;;;36.72;19.75;;;;;;;15.78;100.00;97693.75;10447510;28;20067;-52
2023/05/30 22:22:05;;;;;;;35.45;20.27;;;;;;;15.83;100.00;97706.75;10448528;28;20048;-52
2023/05/30 22:27:06;;;;;;;35.70;19.55;;;;;;;15.77;100.00;97701.66;10447895;28;20118;-51
2023/05/30 22:32:06;;;;;;;33.55;17.67;;;;;;;15.75;100.00;97711.28;10450405;28;20056;-51
2023/05/30 22:37:05;;;;;;;35.50;18.25;;;;;;;15.74;100.00;97709.53;10449884;28;20063;-52
2023/05/30 22:42:05;;;;;;;33.42;18.65;;;;;;;15.66;100.00;97710.56;10450447;28;20575;-52
2023/05/30 22:47:04;;;;;;;31.75;18.92;;;;;;;15.61;100.00;97701.97;10450297;28;20052;-52
2023/05/30 22:52:03;;;;;;;33.13;18.15;;;;;;;15.58;100.00;97702.06;10449514;28;20051;-52
2023/05/30 22:57:02;;;;;;;31.05;18.77;;;;;;;15.45;100.00;97685.75;10449423;28;20066;-51
2023/05/30 23:02:01;;;;;;;29.75;18.65;;;;;;;15.49;100.00;97699.63;10449762;28;20060;-51
2023/05/30 23:07:02;;;;;;;34.63;18.95;;;;;;;15.42;100.00;97709.38;10449884;28;20154;-52
2023/05/30 23:12:01;;;;;;;37.25;19.70;;;;;;;15.35;100.00;97713.00;10448557;28;20059;-52
2023/05/30 23:17:00;;;;;;;36.35;19.13;;;;;;;15.28;100.00;97711.41;10449604;28;20028;-51
2023/05/30 23:21:59;;;;;;;36.22;18.45;;;;;;;15.23;100.00;97690.59;10447020;28;20126;-50
2023/05/30 23:26:59;;;;;;;30.42;18.70;;;;;;;15.39;100.00;97711.19;10448357;28;20056;-52
2023/05/30 23:31:58;;;;;;;29.67;17.45;;;;;;;15.20;100.00;97674.97;10448465;28;20099;-52